Time;durP1;ratioP1;P1;durP2;ratioP2;P2;SDS_P1;SDS_P2;PMS_P1;PMS_P2;Temp;Humidity;BMP_temperature;BMP_pressure;BME280_temperature;BME280_humidity;BME280_pressure;Samples;Min_cycle;Max_cycle;Signal;HPM_P1;HPM_P2
2021/12/20 00:00:25;;;;;;;19.30;14.10;;;;;;;2.56;77.60;99715.13;5000058;28;20553;-69
2021/12/20 00:02:57;;;;;;;18.55;14.43;;;;;;;2.32;77.98;99677.53;4997575;28;20703;-69
2021/12/20 00:05:23;;;;;;;22.90;15.30;;;;;;;2.58;77.42;99697.91;5004810;28;20081;-70
2021/12/20 00:07:49;;;;;;;18.23;14.52;;;;;;;2.77;76.50;99709.50;5036650;28;20117;-69
2021/12/20 00:12:36;;;;;;;22.35;13.43;;;;;;;2.87;76.92;99720.06;5056529;27;1340751;-67
2021/12/20 00:15:03;;;;;;;20.17;13.95;;;;;;;2.61;77.09;99692.78;5100835;27;20666;-68
2021/12/20 00:17:28;;;;;;;22.00;14.93;;;;;;;2.61;77.34;99693.66;5079915;28;20083;-68
2021/12/20 00:19:54;;;;;;;24.35;14.80;;;;;;;2.66;77.09;99691.16;5098152;27;20209;-68
2021/12/20 00:24:40;;;;;;;21.05;13.82;;;;;;;2.25;77.82;99706.72;5054172;28;20632;-70
2021/12/20 00:27:08;;;;;;;19.05;13.43;;;;;;;2.31;77.67;99712.88;5018234;28;20046;-68
2021/12/20 00:29:34;;;;;;;20.80;14.45;;;;;;;2.66;77.67;99717.06;5022107;28;20053;-68
2021/12/20 00:32:00;;;;;;;18.00;13.65;;;;;;;2.26;78.14;99718.78;5020937;28;20478;-70
2021/12/20 00:34:25;;;;;;;32.05;16.38;;;;;;;2.69;77.33;99711.94;5021260;28;20056;-69
2021/12/20 00:41:24;;;;;;;18.63;12.52;;;;;;;2.45;77.57;99701.94;5074125;28;20808;-71
2021/12/20 00:43:49;;;;;;;22.10;15.68;;;;;;;2.60;76.84;99678.06;5084132;28;20040;-68
2021/12/20 00:46:15;;;;;;;19.13;14.68;;;;;;;2.78;76.76;99719.00;5074614;28;20048;-70
2021/12/20 00:48:40;;;;;;;17.25;12.43;;;;;;;2.26;77.32;99693.78;5075611;28;20043;-70
2021/12/20 00:51:06;;;;;;;18.50;12.15;;;;;;;2.66;77.09;99704.09;5059197;28;20473;-70
2021/12/20 00:53:31;;;;;;;21.10;15.07;;;;;;;2.47;77.29;99701.13;5074143;28;20097;-67
2021/12/20 00:55:57;;;;;;;20.27;13.48;;;;;;;2.57;76.83;99711.69;5074997;28;20060;-70
2021/12/20 00:58:22;;;;;;;20.25;13.57;;;;;;;2.50;77.09;99708.09;5073940;28;20455;-68
2021/12/20 01:00:55;;;;;;;17.25;12.75;;;;;;;2.28;77.75;99693.81;5075743;28;20115;-68
2021/12/20 01:03:22;;;;;;;17.85;14.95;;;;;;;2.14;78.09;99687.47;5074537;28;20048;-70
2021/12/20 01:05:48;;;;;;;17.45;12.52;;;;;;;2.30;77.45;99693.00;5073678;28;20060;-70
2021/12/20 01:08:14;;;;;;;23.50;14.23;;;;;;;2.48;77.22;99691.63;5075305;28;20091;-68
2021/12/20 01:10:46;;;;;;;18.40;14.38;;;;;;;2.16;78.06;99699.59;5062973;28;20044;-68
2021/12/20 01:13:13;;;;;;;22.70;14.57;;;;;;;2.12;78.44;99669.31;5074537;28;20028;-69
2021/12/20 01:15:46;;;;;;;20.05;15.35;;;;;;;2.19;77.98;99672.91;5075781;28;20111;-69
2021/12/20 01:18:12;;;;;;;19.08;14.38;;;;;;;2.23;78.23;99696.31;5074490;28;20078;-69
2021/12/20 01:20:38;;;;;;;19.00;13.18;;;;;;;2.50;77.46;99666.66;5074018;28;20078;-69
2021/12/20 01:23:05;;;;;;;18.15;15.68;;;;;;;2.34;77.39;99668.06;5074604;28;20036;-69
2021/12/20 01:25:30;;;;;;;22.52;16.23;;;;;;;2.54;77.25;99663.28;5073310;28;20075;-69
2021/12/20 01:27:56;;;;;;;18.02;13.10;;;;;;;2.60;76.69;99675.47;5039376;28;20032;-69
2021/12/20 01:30:25;;;;;;;23.05;15.43;;;;;;;2.47;76.75;99649.34;5074255;28;20491;-69
2021/12/20 01:32:51;;;;;;;18.95;12.55;;;;;;;2.64;76.56;99652.25;5074144;28;20084;-68
2021/12/20 01:35:18;;;;;;;20.98;14.60;;;;;;;2.47;77.13;99656.25;5073784;28;20171;-72
2021/12/20 01:37:44;;;;;;;20.05;13.88;;;;;;;2.53;77.20;99654.66;5074041;28;20055;-69
2021/12/20 01:40:13;;;;;;;20.00;15.38;;;;;;;2.37;77.39;99646.56;5060892;28;20056;-72
2021/12/20 01:42:39;;;;;;;17.15;12.75;;;;;;;2.29;77.79;99628.25;5073923;28;20031;-69
2021/12/20 01:45:10;;;;;;;22.65;16.30;;;;;;;2.53;77.02;99656.38;5073532;28;20071;-69
2021/12/20 01:47:38;;;;;;;23.83;15.85;;;;;;;2.42;77.48;99643.22;5073359;28;20110;-69
2021/12/20 01:50:12;;;;;;;18.95;13.77;;;;;;;2.61;77.35;99661.72;5060432;28;20040;-68
2021/12/20 01:52:42;;;;;;;;;;;;;;;2.57;77.15;99667.66;5060199;28;22341;-68
2021/12/20 01:55:14;;;;;;;19.58;16.08;;;;;;;2.57;77.47;99653.00;5059821;28;20375;-69
2021/12/20 01:57:39;;;;;;;19.70;14.13;;;;;;;2.61;77.02;99631.50;5059348;28;20028;-68
2021/12/20 02:00:12;;;;;;;18.88;14.93;;;;;;;2.84;76.57;99636.25;5048640;28;20076;-70
2021/12/20 02:02:38;;;;;;;28.48;13.82;;;;;;;2.80;76.30;99614.56;5059821;28;20128;-68
2021/12/20 02:05:13;;;;;;;19.45;13.38;;;;;;;2.71;76.75;99622.19;5060256;28;20068;-68
2021/12/20 02:08:39;;;;;;;19.63;13.20;;;;;;;2.70;76.35;99620.44;5059478;28;20127;-68
2021/12/20 02:10:34;;;;;;;20.70;14.23;;;;;;;2.44;76.84;99638.06;5042052;28;20068;-68
2021/12/20 02:13:00;;;;;;;22.73;14.63;;;;;;;2.58;77.31;99641.81;5061012;28;20111;-69
2021/12/20 02:15:26;;;;;;;19.35;14.35;;;;;;;2.36;77.18;99632.72;5061010;28;20052;-71
2021/12/20 02:17:51;;;;;;;23.85;15.40;;;;;;;2.49;77.79;99664.94;5060386;28;20043;-70
2021/12/20 02:22:46;;;;;;;23.15;14.77;;;;;;;2.50;77.13;99643.34;5022992;28;20669;-68
2021/12/20 02:25:12;;;;;;;20.65;15.25;;;;;;;2.43;77.46;99644.06;4995155;28;20497;-69
2021/12/20 02:27:37;;;;;;;18.90;13.70;;;;;;;2.12;77.83;99643.44;4992590;28;20045;-70
2021/12/20 02:30:11;;;;;;;22.10;14.60;;;;;;;2.07;77.91;99635.56;4995569;28;20050;-68
2021/12/20 02:38:19;;;;;;;27.38;15.23;;;;;;;2.03;77.75;99625.13;4994729;28;20060;-70
2021/12/20 02:40:45;;;;;;;19.13;15.70;;;;;;;1.75;78.65;99640.03;4995132;28;20042;-69
2021/12/20 02:43:14;;;;;;;24.98;15.57;;;;;;;1.97;78.62;99640.53;4996285;28;22942;-70
2021/12/20 02:45:40;;;;;;;30.75;15.68;;;;;;;2.11;77.84;99646.88;4994402;28;20493;-68
2021/12/20 02:48:07;;;;;;;22.98;15.35;;;;;;;2.06;78.31;99630.34;4995939;28;20466;-69
2021/12/20 02:50:33;;;;;;;23.40;15.45;;;;;;;2.07;78.16;99640.75;4995572;28;20854;-69
2021/12/20 02:52:58;;;;;;;24.45;15.45;;;;;;;2.07;77.96;99655.41;4977892;28;20045;-69
2021/12/20 02:55:24;;;;;;;29.52;18.65;;;;;;;1.95;78.07;99635.31;4994716;28;20061;-68
2021/12/20 02:57:49;;;;;;;20.45;16.23;;;;;;;1.93;77.82;99649.94;4995962;28;20085;-68
2021/12/20 03:00:15;;;;;;;20.85;15.98;;;;;;;1.93;78.58;99649.06;4993765;28;20049;-70
2021/12/20 03:02:41;;;;;;;22.15;17.58;;;;;;;1.86;78.24;99628.22;4995530;28;20744;-69
2021/12/20 03:05:08;;;;;;;23.45;17.40;;;;;;;2.05;77.86;99637.25;4993115;28;20078;-73
2021/12/20 03:07:42;;;;;;;25.05;16.95;;;;;;;1.81;78.02;99629.84;4994625;28;20051;-68
2021/12/20 03:10:08;;;;;;;23.50;18.20;;;;;;;2.15;78.27;99651.25;4995073;28;20040;-69
2021/12/20 03:12:34;;;;;;;22.77;15.57;;;;;;;2.04;78.08;99643.28;4995156;28;21376;-69
2021/12/20 03:15:05;;;;;;;22.27;17.25;;;;;;;2.00;78.23;99630.25;4994100;28;20050;-68
2021/12/20 03:17:31;;;;;;;22.67;17.27;;;;;;;2.04;78.26;99620.00;4994936;28;20046;-70
2021/12/20 03:19:56;;;;;;;21.00;18.00;;;;;;;1.90;78.17;99622.28;4993979;28;20050;-70
2021/12/20 03:22:22;;;;;;;23.55;17.35;;;;;;;2.26;77.94;99636.84;4994333;28;20056;-68
2021/12/20 03:24:48;;;;;;;26.52;19.35;;;;;;;1.97;78.07;99623.28;4995438;28;20042;-70
2021/12/20 03:27:14;;;;;;;27.05;18.73;;;;;;;2.28;78.05;99652.41;4990634;28;20129;-70
2021/12/20 03:29:40;;;;;;;24.48;18.55;;;;;;;2.45;76.93;99635.50;4994149;28;20153;-70
2021/12/20 03:32:05;;;;;;;29.13;19.85;;;;;;;2.42;76.92;99634.56;4993167;28;20093;-71
2021/12/20 03:34:31;;;;;;;35.33;18.02;;;;;;;2.44;77.09;99645.84;4979528;28;20046;-70
2021/12/20 03:36:57;;;;;;;22.10;17.50;;;;;;;2.18;76.92;99628.06;4981543;28;20038;-73
2021/12/20 03:39:22;;;;;;;31.80;18.50;;;;;;;2.16;77.19;99614.22;4981135;28;20161;-72
2021/12/20 03:41:48;;;;;;;21.73;17.10;;;;;;;2.73;76.67;99651.56;4979914;28;23342;-70
2021/12/20 03:44:13;;;;;;;36.65;20.52;;;;;;;2.37;76.37;99634.47;4980244;28;20065;-70
2021/12/20 03:46:39;;;;;;;30.40;20.88;;;;;;;2.10;76.50;99638.22;4979865;28;20409;-69
2021/12/20 03:49:06;;;;;;;23.50;17.65;;;;;;;2.32;75.92;99656.81;4981671;28;20459;-70
2021/12/20 03:51:31;;;;;;;30.17;19.92;;;;;;;2.46;75.94;99641.56;4980713;28;20501;-69
2021/12/20 03:53:57;;;;;;;29.83;20.27;;;;;;;2.68;75.77;99635.09;4981592;28;20039;-69
2021/12/20 03:56:23;;;;;;;26.17;19.38;;;;;;;2.80;75.59;99649.97;4979770;28;20129;-70
2021/12/20 03:58:48;;;;;;;32.45;21.90;;;;;;;2.71;75.01;99645.50;4980165;28;20047;-71
2021/12/20 04:01:14;;;;;;;28.45;22.45;;;;;;;2.54;75.81;99624.44;4980118;28;20165;-69
2021/12/20 04:03:40;;;;;;;28.35;19.38;;;;;;;2.67;74.83;99625.53;4981999;28;20038;-70
2021/12/20 04:06:09;;;;;;;43.80;24.08;;;;;;;2.80;74.17;99637.91;4980278;28;20050;-67
2021/12/20 04:08:34;;;;;;;31.30;23.20;;;;;;;2.16;75.82;99626.28;4981403;28;20062;-69
2021/12/20 04:11:00;;;;;;;33.30;22.05;;;;;;;2.48;74.71;99648.53;4980715;28;22499;-70
2021/12/20 04:13:26;;;;;;;30.40;20.67;;;;;;;2.62;74.70;99664.34;4980384;28;20050;-70
2021/12/20 04:15:53;;;;;;;32.35;23.15;;;;;;;2.53;74.85;99639.13;4980866;28;20049;-70
2021/12/20 04:20:49;;;;;;;26.75;21.35;;;;;;;2.58;73.93;99654.75;5109915;27;20179;-68
2021/12/20 04:23:15;;;;;;;27.17;20.88;;;;;;;2.73;73.76;99660.22;5103431;28;20039;-70
2021/12/20 04:25:40;;;;;;;28.52;20.98;;;;;;;2.87;74.25;99688.13;5099511;28;20042;-70
2021/12/20 04:28:06;;;;;;;27.38;21.35;;;;;;;2.84;74.29;99675.09;5097264;28;20036;-71
2021/12/20 04:30:49;;;;;;;34.30;24.58;;;;;;;2.61;74.01;99672.94;5075623;27;20620;-68
2021/12/20 04:33:15;;;;;;;28.90;23.08;;;;;;;2.73;74.32;99698.19;5023469;28;20378;-73
2021/12/20 04:35:40;;;;;;;27.77;22.33;;;;;;;2.87;74.27;99698.47;5020295;28;20412;-70
2021/12/20 04:38:08;;;;;;;25.60;22.33;;;;;;;2.96;73.88;99688.28;5022565;28;20762;-72
2021/12/20 04:40:34;;;;;;;35.00;21.27;;;;;;;2.93;73.58;99660.59;5017071;28;20496;-70
2021/12/20 04:43:00;;;;;;;31.73;20.95;;;;;;;2.90;73.83;99678.69;5015522;28;20393;-69
2021/12/20 04:45:27;;;;;;;26.73;20.40;;;;;;;3.11;73.19;99677.31;5014432;28;20075;-69
2021/12/20 04:47:53;;;;;;;26.75;20.05;;;;;;;3.09;72.61;99673.81;5015449;28;20049;-69
2021/12/20 04:50:20;;;;;;;26.58;21.05;;;;;;;3.09;72.11;99672.13;5027157;28;20058;-69
2021/12/20 04:54:50;;;;;;;27.08;18.70;;;;;;;3.24;72.31;99688.81;5125599;27;20590;-68
2021/12/20 04:57:16;;;;;;;27.67;20.10;;;;;;;2.89;72.43;99674.34;5088342;27;20044;-68
2021/12/20 04:59:41;;;;;;;26.10;18.52;;;;;;;3.03;72.41;99710.00;5061401;28;20055;-68
2021/12/20 05:02:07;;;;;;;32.63;17.02;;;;;;;3.14;72.40;99724.06;5083399;28;20048;-69
2021/12/20 05:04:32;;;;;;;32.85;18.60;;;;;;;3.15;71.57;99708.50;5085324;28;20055;-69
2021/12/20 05:06:58;;;;;;;30.42;19.55;;;;;;;3.17;71.76;99687.81;5081364;28;20032;-69
2021/12/20 05:09:28;;;;;;;28.75;17.98;;;;;;;2.77;72.27;99674.13;5077047;28;21094;-68
2021/12/20 05:12:01;;;;;;;27.85;18.88;;;;;;;3.15;71.30;99689.50;5079759;28;20130;-68
2021/12/20 05:14:27;;;;;;;30.80;19.65;;;;;;;3.16;71.26;99689.53;5046994;28;20052;-71
2021/12/20 05:16:52;;;;;;;29.88;19.17;;;;;;;3.16;70.96;99683.44;5077886;28;20040;-68
2021/12/20 05:19:18;;;;;;;23.88;18.40;;;;;;;3.22;70.88;99678.41;5082691;28;20119;-68
2021/12/20 05:21:43;;;;;;;21.27;16.67;;;;;;;3.17;70.79;99673.13;5080014;28;20105;-69
2021/12/20 05:24:09;;;;;;;26.13;21.17;;;;;;;3.25;71.55;99686.22;5074065;28;20051;-68
2021/12/20 05:26:34;;;;;;;30.75;19.63;;;;;;;3.25;70.30;99674.97;5069507;28;20043;-69
2021/12/20 05:29:06;;;;;;;24.15;17.70;;;;;;;3.36;70.06;99712.34;5069764;28;20135;-69
2021/12/20 05:31:33;;;;;;;42.95;17.38;;;;;;;3.32;69.82;99694.97;5079965;28;20487;-68
2021/12/20 05:33:58;;;;;;;23.65;17.80;;;;;;;3.14;69.94;99724.91;5084677;28;20549;-68
2021/12/20 05:38:50;;;;;;;24.98;17.73;;;;;;;3.21;70.81;99692.22;5004683;28;20626;-68
2021/12/20 05:42:53;;;;;;;24.15;18.08;;;;;;;3.49;70.11;99735.06;5136430;27;20200;-67
2021/12/20 05:45:19;;;;;;;27.02;18.55;;;;;;;3.06;70.58;99703.16;5084630;27;20036;-68
2021/12/20 05:47:46;;;;;;;21.15;16.45;;;;;;;3.06;70.04;99723.03;5065485;28;20541;-67
2021/12/20 05:50:15;;;;;;;23.55;17.73;;;;;;;3.06;70.35;99697.97;5066727;28;20124;-69
2021/12/20 05:52:41;;;;;;;26.50;18.75;;;;;;;3.34;70.67;99724.41;5052384;28;20064;-68
2021/12/20 05:55:07;;;;;;;24.88;17.95;;;;;;;3.06;70.42;99694.50;5035901;28;20476;-68
2021/12/20 05:57:34;;;;;;;29.05;18.33;;;;;;;3.02;70.90;99693.59;5034738;28;20033;-68
2021/12/20 06:00:03;;;;;;;28.35;19.67;;;;;;;3.13;70.57;99702.41;5051418;28;20041;-68
2021/12/20 06:02:28;;;;;;;20.35;15.30;;;;;;;3.17;70.40;99742.25;5058062;28;20045;-70
2021/12/20 06:04:54;;;;;;;23.02;16.63;;;;;;;3.29;70.24;99732.09;5062544;28;20072;-68
2021/12/20 06:07:21;;;;;;;30.00;17.15;;;;;;;3.14;70.01;99718.88;5062455;28;20172;-68
2021/12/20 06:09:48;;;;;;;22.80;17.25;;;;;;;3.01;70.82;99735.88;5043732;28;20106;-70
2021/12/20 06:12:14;;;;;;;19.50;14.43;;;;;;;3.20;70.20;99742.28;5062370;28;20127;-68
2021/12/20 06:14:40;;;;;;;21.40;16.60;;;;;;;3.08;70.16;99729.09;5055496;28;20045;-68
2021/12/20 06:17:06;;;;;;;18.60;15.07;;;;;;;3.02;70.57;99753.19;5064631;28;21755;-70
2021/12/20 06:19:32;;;;;;;27.90;16.98;;;;;;;2.59;71.12;99754.03;5076542;28;20048;-68
2021/12/20 06:21:58;;;;;;;18.98;15.23;;;;;;;2.87;70.80;99751.16;5080095;28;20431;-69
2021/12/20 06:26:53;;;;;;;19.88;15.05;;;;;;;3.03;70.73;99754.06;5079742;27;20617;-72
2021/12/20 06:29:19;;;;;;;22.05;15.23;;;;;;;3.05;70.69;99763.63;5070781;28;20510;-68
2021/12/20 06:31:45;;;;;;;26.83;14.70;;;;;;;3.19;70.33;99768.22;5075495;28;20081;-67
2021/12/20 06:34:10;;;;;;;22.40;15.10;;;;;;;2.95;70.41;99749.63;5075166;28;20051;-70
2021/12/20 06:36:36;;;;;;;25.30;14.20;;;;;;;2.93;71.07;99772.03;5075885;28;20780;-73
2021/12/20 06:39:04;;;;;;;32.05;14.57;;;;;;;2.94;70.45;99758.22;5074072;28;20056;-70
2021/12/20 06:41:30;;;;;;;24.52;13.40;;;;;;;2.98;71.05;99766.94;5074718;28;20132;-72
2021/12/20 06:43:56;;;;;;;15.43;11.02;;;;;;;2.80;71.15;99763.97;5066920;28;20459;-73
2021/12/20 06:46:22;;;;;;;16.33;10.93;;;;;;;2.93;70.07;99761.66;5057942;28;20094;-71
2021/12/20 06:48:48;;;;;;;27.92;12.05;;;;;;;2.86;70.32;99754.59;5075357;28;20036;-70
2021/12/20 06:51:13;;;;;;;15.93;10.88;;;;;;;2.99;69.85;99771.25;5075024;28;20044;-70
2021/12/20 06:53:39;;;;;;;20.30;12.85;;;;;;;3.13;69.73;99789.69;5074469;27;20051;-68
2021/12/20 06:56:04;;;;;;;23.55;12.27;;;;;;;2.89;69.94;99765.03;5073789;28;20032;-68
2021/12/20 06:58:30;;;;;;;14.93;9.65;;;;;;;3.01;69.27;99760.94;5073725;28;20575;-68
2021/12/20 07:00:55;;;;;;;18.73;10.80;;;;;;;3.03;69.50;99762.72;5075333;28;20460;-68
2021/12/20 07:03:22;;;;;;;18.85;10.93;;;;;;;3.19;69.11;99774.25;5073271;28;20072;-70
2021/12/20 07:05:48;;;;;;;16.23;9.98;;;;;;;3.07;70.06;99787.84;5074369;28;20498;-69
2021/12/20 07:08:15;;;;;;;18.40;12.48;;;;;;;3.26;69.56;99796.00;5072540;28;20044;-68
2021/12/20 07:10:41;;;;;;;23.25;11.60;;;;;;;3.35;69.42;99794.44;5073873;28;20562;-68
2021/12/20 07:13:08;;;;;;;15.77;11.63;;;;;;;3.52;69.61;99796.47;5074041;28;20086;-71
2021/12/20 07:15:34;;;;;;;13.60;9.50;;;;;;;3.41;68.37;99777.25;5075009;28;21725;-70
2021/12/20 07:18:00;;;;;;;20.23;10.07;;;;;;;3.32;69.21;99770.16;5087516;28;20106;-71
2021/12/20 07:22:55;;;;;;;14.93;10.07;;;;;;;3.42;68.46;99773.81;5058528;28;20619;-69
2021/12/20 07:25:21;;;;;;;13.20;10.23;;;;;;;3.39;68.18;99782.41;5013244;28;20053;-68
2021/12/20 07:27:51;;;;;;;14.93;10.60;;;;;;;3.53;67.78;99793.03;5011131;28;20041;-69
2021/12/20 07:30:18;;;;;;;18.38;10.40;;;;;;;3.54;68.17;99787.00;5028740;28;20046;-69
2021/12/20 07:32:44;;;;;;;42.13;13.40;;;;;;;3.69;68.16;99794.19;5029741;28;20051;-70
2021/12/20 07:35:10;;;;;;;19.45;10.45;;;;;;;3.67;67.29;99772.53;5032154;28;20053;-69
2021/12/20 07:37:36;;;;;;;30.75;10.77;;;;;;;3.89;66.79;99791.94;5031475;28;20045;-69
2021/12/20 07:40:04;;;;;;;15.45;10.95;;;;;;;3.54;67.33;99780.09;5019670;28;20037;-71
2021/12/20 07:42:29;;;;;;;18.92;10.52;;;;;;;3.73;67.22;99776.09;5030066;28;20084;-70
2021/12/20 07:44:55;;;;;;;14.60;10.60;;;;;;;3.65;67.54;99764.72;5026984;28;20512;-72
2021/12/20 07:47:20;;;;;;;29.95;12.20;;;;;;;3.78;66.86;99784.84;5030188;28;20049;-70
2021/12/20 07:49:46;;;;;;;26.83;10.10;;;;;;;4.00;66.58;99808.56;5029988;28;20172;-70
2021/12/20 07:52:11;;;;;;;15.90;10.95;;;;;;;3.93;67.01;99802.41;5014872;28;20025;-70
2021/12/20 07:54:37;;;;;;;18.50;10.73;;;;;;;3.70;66.85;99782.94;5014750;28;20036;-70
2021/12/20 07:57:03;;;;;;;16.88;10.60;;;;;;;3.78;66.70;99787.44;5009922;28;20099;-71
2021/12/20 07:59:28;;;;;;;17.65;11.00;;;;;;;3.59;67.15;99808.72;5012817;28;20065;-70
2021/12/20 08:01:54;;;;;;;18.20;10.18;;;;;;;3.40;68.03;99833.44;5029891;28;20096;-70
2021/12/20 08:04:21;;;;;;;34.63;11.65;;;;;;;3.23;68.34;99816.66;5031838;28;20496;-71
2021/12/20 08:06:47;;;;;;;11.52;8.52;;;;;;;3.59;67.45;99845.91;5030731;28;20156;-70
2021/12/20 08:09:14;;;;;;;20.40;11.55;;;;;;;3.78;67.38;99822.91;5030501;28;20455;-69
2021/12/20 08:11:40;;;;;;;13.32;9.80;;;;;;;3.16;69.77;99836.38;5029406;28;20045;-69
2021/12/20 08:14:05;;;;;;;16.08;11.18;;;;;;;3.28;69.23;99826.28;5033564;28;20680;-72
2021/12/20 08:16:31;;;;;;;18.23;12.60;;;;;;;3.57;68.69;99837.22;5013875;28;20071;-70
2021/12/20 08:18:56;;;;;;;15.90;9.73;;;;;;;3.36;69.02;99840.25;5013106;28;20044;-70
2021/12/20 08:21:22;;;;;;;24.35;14.32;;;;;;;2.78;70.91;99875.31;5030374;28;20077;-68
2021/12/20 08:23:48;;;;;;;19.00;13.82;;;;;;;2.34;72.10;99875.13;5029999;28;20113;-69
2021/12/20 08:26:14;;;;;;;17.05;12.15;;;;;;;2.77;71.37;99904.66;5014847;28;20048;-69
2021/12/20 08:28:40;;;;;;;20.58;14.65;;;;;;;2.91;71.35;99887.72;5030220;28;20106;-69
2021/12/20 08:31:07;;;;;;;18.80;13.55;;;;;;;2.60;71.55;99868.03;5027430;28;20033;-72
2021/12/20 08:33:34;;;;;;;18.33;10.23;;;;;;;2.30;71.68;99883.69;5020817;28;20033;-69
2021/12/20 08:36:06;;;;;;;21.48;13.07;;;;;;;2.15;72.72;99914.34;4997916;28;20056;-70
2021/12/20 08:38:32;;;;;;;16.95;10.40;;;;;;;2.44;71.94;99918.56;5019097;28;20045;-69
2021/12/20 08:40:58;;;;;;;13.70;10.77;;;;;;;2.40;71.97;99889.97;5018000;28;20053;-71
2021/12/20 08:43:24;;;;;;;24.30;12.95;;;;;;;2.51;71.69;99904.06;5018487;28;21511;-69
2021/12/20 08:45:50;;;;;;;19.92;13.20;;;;;;;3.13;70.62;99904.59;4999819;28;20553;-69
2021/12/20 08:48:15;;;;;;;26.85;13.52;;;;;;;2.87;70.82;99892.78;5018483;28;20052;-70
2021/12/20 08:50:42;;;;;;;20.83;12.50;;;;;;;3.02;70.77;99929.44;5015149;28;20485;-70
2021/12/20 08:53:10;;;;;;;19.52;13.95;;;;;;;2.72;71.40;99893.34;4998703;28;20046;-70
2021/12/20 08:55:36;;;;;;;28.40;14.52;;;;;;;3.17;69.64;99898.66;5000087;28;20049;-72
2021/12/20 08:58:03;;;;;;;23.90;14.95;;;;;;;3.25;70.25;99895.34;5016309;28;20026;-69
2021/12/20 09:00:30;;;;;;;20.27;14.65;;;;;;;3.56;69.16;99896.88;5007007;28;20048;-69
2021/12/20 09:02:57;;;;;;;20.58;15.65;;;;;;;3.54;69.61;99909.78;5014495;28;20054;-70
2021/12/20 09:05:24;;;;;;;21.90;14.88;;;;;;;3.95;68.35;99912.28;5016780;28;20046;-69
2021/12/20 09:07:50;;;;;;;21.90;15.00;;;;;;;3.77;68.76;99917.16;5014068;28;20143;-69
2021/12/20 09:10:16;;;;;;;24.45;13.13;;;;;;;4.29;68.21;99914.66;5017395;28;20057;-69
2021/12/20 09:12:43;;;;;;;20.00;16.02;;;;;;;4.52;67.69;99922.78;5017421;28;20061;-69
2021/12/20 09:15:15;;;;;;;35.80;16.10;;;;;;;4.44;67.19;99912.28;5013759;28;20045;-69
2021/12/20 09:17:41;;;;;;;24.20;16.85;;;;;;;4.69;66.57;99936.09;5016975;28;20037;-69
2021/12/20 09:20:08;;;;;;;22.42;17.40;;;;;;;4.09;68.22;99963.59;5017741;28;20049;-70
2021/12/20 09:22:39;;;;;;;23.83;18.77;;;;;;;4.24;68.18;99924.94;5015774;28;20501;-69
2021/12/20 09:25:06;;;;;;;24.38;20.38;;;;;;;4.21;69.26;99941.34;4998888;28;20871;-69
2021/12/20 09:27:32;;;;;;;20.13;13.38;;;;;;;3.44;72.95;99930.31;4997595;28;20037;-71
2021/12/20 09:29:58;;;;;;;16.52;12.68;;;;;;;3.49;73.60;99933.88;5017361;28;20353;-69
2021/12/20 09:32:23;;;;;;;23.35;13.00;;;;;;;3.44;74.35;99951.06;5016980;28;20491;-70
2021/12/20 09:34:49;;;;;;;16.85;10.68;;;;;;;3.67;74.58;99964.50;5015750;28;20049;-73
2021/12/20 09:37:14;;;;;;;14.88;9.70;;;;;;;3.64;73.79;99930.72;5016690;28;20440;-69
2021/12/20 09:39:42;;;;;;;8.32;6.15;;;;;;;3.59;73.04;99935.81;5016607;28;20040;-68
2021/12/20 09:42:12;;;;;;;7.30;4.78;;;;;;;3.36;74.02;99962.13;5016767;28;20493;-68
2021/12/20 09:44:38;;;;;;;7.82;4.05;;;;;;;3.54;73.57;99960.81;5013402;28;20450;-70
2021/12/20 09:47:04;;;;;;;5.70;3.65;;;;;;;3.52;73.15;99940.00;5013491;28;20043;-68
2021/12/20 09:49:30;;;;;;;12.05;4.43;;;;;;;3.95;73.17;99969.41;5014647;28;20037;-71
2021/12/20 09:51:58;;;;;;;6.78;4.57;;;;;;;3.85;73.21;99970.06;4994139;28;20033;-73
2021/12/20 09:54:25;;;;;;;8.52;3.90;;;;;;;3.00;74.39;99944.06;5012989;28;20064;-71
2021/12/20 09:56:53;;;;;;;9.57;5.93;;;;;;;3.05;76.55;99975.28;5012071;28;20065;-71
2021/12/20 09:59:20;;;;;;;4.60;3.22;;;;;;;2.94;76.78;99972.41;5013741;28;20143;-70
2021/12/20 10:02:57;;;;;;;6.43;4.00;;;;;;;2.33;78.47;99954.53;5019956;28;20572;-70
2021/12/20 10:05:23;;;;;;;5.50;3.83;;;;;;;2.18;79.12;99948.97;5015973;28;20040;-70
2021/12/20 10:07:51;;;;;;;6.15;3.95;;;;;;;2.61;78.79;99964.72;5015567;28;20046;-69
2021/12/20 10:10:35;;;;;;;7.05;3.70;;;;;;;3.19;77.40;99970.41;5015135;28;20132;-69
2021/12/20 10:13:00;;;;;;;6.18;4.00;;;;;;;3.52;76.79;99972.84;5015752;28;20131;-69
2021/12/20 10:15:38;;;;;;;7.43;3.95;;;;;;;3.26;76.50;99960.19;5015010;28;20069;-69
2021/12/20 10:18:05;;;;;;;7.20;4.07;;;;;;;3.16;77.65;99964.31;5013649;28;20510;-69
2021/12/20 10:23:13;;;;;;;9.98;4.93;;;;;;;3.36;77.51;99967.31;5042460;28;20616;-68
2021/12/20 10:25:41;;;;;;;7.45;4.28;;;;;;;3.29;76.66;99970.63;5031640;28;20045;-68
2021/12/20 10:28:13;;;;;;;4.88;3.55;;;;;;;2.99;77.56;99954.38;5024298;28;20131;-68
2021/12/20 10:31:07;;;;;;;12.77;4.13;;;;;;;3.23;77.14;99961.84;5029071;28;20037;-68
2021/12/20 10:33:33;;;;;;;8.63;5.40;;;;;;;3.12;77.62;99974.56;5028206;28;20044;-71
2021/12/20 10:36:12;;;;;;;8.48;4.18;;;;;;;3.14;76.98;99976.34;5032505;28;20060;-68
2021/12/20 10:38:43;;;;;;;7.40;4.45;;;;;;;2.68;79.89;100010.66;5030898;28;20053;-69
2021/12/20 10:41:16;;;;;;;8.10;5.25;;;;;;;2.87;78.74;99991.25;5033023;28;20522;-70
2021/12/20 10:43:51;;;;;;;9.93;5.13;;;;;;;2.50;79.55;99993.78;5032406;28;20519;-70
2021/12/20 10:46:32;;;;;;;8.88;5.00;;;;;;;2.48;80.83;99995.50;5033466;28;20033;-69
2021/12/20 10:48:59;;;;;;;9.60;4.95;;;;;;;2.32;80.96;100025.28;5032955;28;20037;-70
2021/12/20 10:51:28;;;;;;;5.50;4.18;;;;;;;2.62;79.49;99995.84;5032274;28;20069;-70
2021/12/20 10:54:02;;;;;;;7.63;5.15;;;;;;;2.52;79.79;99997.28;5029867;28;22972;-70
2021/12/20 10:56:33;;;;;;;9.75;5.70;;;;;;;2.84;78.93;100012.78;5027073;28;20171;-70
2021/12/20 10:59:01;;;;;;;9.68;4.35;;;;;;;2.50;79.39;99977.38;5025941;28;20132;-70
2021/12/20 11:04:15;;;;;;;7.10;4.53;;;;;;;2.57;79.26;99999.13;5028379;28;20157;-68
2021/12/20 11:09:13;;;;;;;7.53;5.10;;;;;;;2.81;79.13;100015.31;5031654;28;20033;-69
2021/12/20 11:11:41;;;;;;;7.53;4.05;;;;;;;2.31;79.47;99976.03;5027699;28;20055;-68
2021/12/20 11:14:08;;;;;;;11.02;5.53;;;;;;;2.70;79.47;99999.50;5025301;28;20053;-71
2021/12/20 11:17:00;;;;;;;12.52;5.97;;;;;;;2.74;78.92;99977.13;5027325;28;20057;-67
2021/12/20 11:19:30;;;;;;;8.77;5.25;;;;;;;2.85;78.96;100003.28;5027613;28;20052;-68
2021/12/20 11:22:21;;;;;;;16.95;5.85;;;;;;;2.83;78.60;99995.47;5028105;28;20053;-70
2021/12/20 11:25:07;;;;;;;10.48;5.80;;;;;;;2.59;79.98;100016.47;5032339;28;20080;-70
2021/12/20 11:27:39;;;;;;;9.10;6.60;;;;;;;2.42;80.57;100004.81;5024354;28;20206;-69
2021/12/20 11:30:22;;;;;;;11.63;7.70;;;;;;;2.68;80.22;100019.28;5027832;28;20124;-69
2021/12/20 11:32:48;;;;;;;11.75;8.32;;;;;;;1.54;82.57;100014.41;5022194;28;20546;-69
2021/12/20 11:35:15;;;;;;;10.70;8.48;;;;;;;2.20;81.67;100014.59;5014673;28;20045;-69
2021/12/20 11:37:41;;;;;;;11.75;7.60;;;;;;;2.31;81.44;100020.91;5014382;28;20053;-69
2021/12/20 11:40:09;;;;;;;10.48;7.50;;;;;;;1.99;82.35;100012.28;5018022;28;23244;-69
2021/12/20 11:42:35;;;;;;;11.50;7.10;;;;;;;2.00;82.51;100019.22;5017663;28;20045;-70
2021/12/20 11:45:03;;;;;;;7.30;6.10;;;;;;;1.56;82.23;100016.22;5017357;28;20033;-71
2021/12/20 11:47:46;;;;;;;13.30;5.15;;;;;;;1.39;82.60;100020.00;5011021;28;20038;-70
2021/12/20 11:50:14;;;;;;;8.43;4.65;;;;;;;2.02;82.37;100056.34;5013203;28;20045;-70
2021/12/20 11:52:42;;;;;;;8.95;5.22;;;;;;;2.33;80.42;100052.03;5013720;28;20038;-69
2021/12/20 11:55:28;;;;;;;6.78;4.05;;;;;;;1.34;81.56;100044.84;5014397;28;20037;-71
2021/12/20 11:58:14;;;;;;;6.90;3.25;;;;;;;1.86;81.11;100047.28;5050418;28;20102;-69
2021/12/20 12:00:46;;;;;;;7.78;5.18;;;;;;;1.98;81.19;100079.50;5014250;28;20080;-69
2021/12/20 12:03:15;;;;;;;8.57;4.20;;;;;;;2.26;80.86;100097.56;5016416;28;20045;-71
2021/12/20 12:05:40;;;;;;;10.18;4.03;;;;;;;1.86;81.07;100086.06;5012295;28;20144;-71
2021/12/20 12:08:22;;;;;;;6.38;4.25;;;;;;;1.89;80.61;100080.09;5014838;28;20124;-70